Time,TemperatureF,DewpointF,PressureIn,WindDirection,WindDirectionDegrees,WindSpeedMPH,WindSpeedGustMPH,Humidity,HourlyPrecipIn,Conditions,Clouds,dailyrainin,SoftwareType,DateUTC
2013-08-01 00:00:00,65.1,62.4,30.03,South,188,0.0,0.0,91,0.00,CLR,,0.00,WeatherDisplay:10.37,2013-08-01 04:00:00,
2013-08-01 00:01:00,65.1,62.7,30.03,South,188,0.0,0.0,92,0.00,CLR,,0.00,WeatherDisplay:10.37,2013-08-01 04:01:00,
2013-08-01 00:02:00,65.1,62.7,30.03,South,188,0.0,0.0,92,0.00,FEW,,0.00,WeatherDisplay:10.37,2013-08-01 04:02:00,
2013-08-01 00:03:00,65.1,62.7,30.03,South,188,0.0,0.0,92,0.00,FEW,,0.00,WeatherDisplay:10.37,2013-08-01 04:03:00,
2013-08-01 00:08:00,65.0,62.6,30.03,South,188,0.0,0.0,92,0.00,FEW,,0.00,WeatherDisplay:10.37,2013-08-01 04:08:00,
2013-08-01 00:13:00,64.9,62.5,30.03,South,188,0.0,0.0,92,0.00,FEW,,0.00,WeatherDisplay:10.37,2013-08-01 04:13:00,
2013-08-01 00:18:00,64.7,62.3,30.03,South,188,0.0,0.0,92,0.00,FEW,,0.00,WeatherDisplay:10.37,2013-08-01 04:18:00,
2013-08-01 00:23:00,64.6,62.2,30.03,South,188,0.0,0.0,92,0.00,FEW,,0.00,WeatherDisplay:10.37,2013-08-01 04:23:00,
2013-08-01 00:28:00,64.5,62.4,30.03,South,188,0.0,0.0,93,0.00,FEW,,0.00,WeatherDisplay:10.37,2013-08-01 04:28:00,
2013-08-01 00:33:00,64.3,62.2,30.03,South,188,0.0,0.0,93,0.00,FEW,,0.00,WeatherDisplay:10.37,2013-08-01 04:33:00,
2013-08-01 00:38:00,64.2,62.1,30.03,South,188,0.0,0.0,93,0.00,FEW,,0.00,WeatherDisplay:10.37,2013-08-01 04:38:00,
2013-08-01 00:43:00,64.0,61.9,30.02,South,188,0.0,0.0,93,0.00,FEW,,0.00,WeatherDisplay:10.37,2013-08-01 04:43:00,
2013-08-01 00:48:00,64.0,62.2,30.02,South,188,0.0,0.0,94,0.00,FEW,,0.00,WeatherDisplay:10.37,2013-08-01 04:48:00,
2013-08-01 00:53:00,63.8,62.0,30.02,South,188,0.0,0.0,94,0.00,FEW,,0.00,WeatherDisplay:10.37,2013-08-01 04:53:00,
2013-08-01 00:58:00,63.7,61.9,30.02,South,188,0.0,0.0,94,0.00,FEW,,0.00,WeatherDisplay:10.37,2013-08-01 04:58:00,
2013-08-01 01:03:00,63.6,61.8,30.02,South,188,0.0,0.0,94,0.00,CLR,,0.00,WeatherDisplay:10.37,2013-08-01 05:03:00,
2013-08-01 01:08:00,63.5,61.7,30.02,South,188,0.0,0.0,94,0.00,CLR,,0.00,WeatherDisplay:10.37,2013-08-01 05:08:00,
2013-08-01 01:13:00,63.4,61.9,30.02,South,188,0.0,0.0,95,0.00,CLR,,0.00,WeatherDisplay:10.37,2013-08-01 05:13:00,
2013-08-01 01:18:00,63.3,61.5,30.02,South,188,0.0,0.0,94,0.00,CLR,,0.00,WeatherDisplay:10.37,2013-08-01 05:18:00,
2013-08-01 01:23:00,63.2,61.7,30.01,South,188,0.0,0.0,95,0.00,CLR,,0.00,WeatherDisplay:10.37,2013-08-01 05:23:00,
2013-08-01 01:28:00,63.1,61.6,30.01,South,188,0.0,0.0,95,0.00,CLR,,0.00,WeatherDisplay:10.37,2013-08-01 05:28:00,
2013-08-01 01:33:00,63.1,61.6,30.01,South,188,0.0,0.0,95,0.00,CLR,,0.00,WeatherDisplay:10.37,2013-08-01 05:33:00,
2013-08-01 01:38:00,63.0,61.8,30.01,South,188,0.0,0.0,96,0.00,CLR,,0.00,WeatherDisplay:10.37,2013-08-01 05:38:00,
2013-08-01 01:43:00,62.9,61.7,30.01,South,188,0.0,0.0,96,0.00,CLR,,0.00,WeatherDisplay:10.37,2013-08-01 05:43:00,
2013-08-01 01:48:00,62.8,61.6,30.00,South,188,0.0,0.0,96,0.00,CLR,,0.00,WeatherDisplay:10.37,2013-08-01 05:48:00,
2013-08-01 01:53:00,62.8,61.6,30.00,South,188,0.0,0.0,96,0.00,CLR,,0.00,WeatherDisplay:10.37,2013-08-01 05:53:00,
2013-08-01 01:58:00,62.7,61.5,30.00,South,188,0.0,0.0,96,0.00,CLR,,0.00,WeatherDisplay:10.37,2013-08-01 05:58:00,
2013-08-01 02:03:00,62.6,61.4,30.00,South,188,0.0,0.0,96,0.00,CLR,,0.00,WeatherDisplay:10.37,2013-08-01 06:03:00,
2013-08-01 02:08:00,62.5,61.3,30.00,South,188,0.0,0.0,96,0.00,CLR,,0.00,WeatherDisplay:10.37,2013-08-01 06:08:00,
2013-08-01 02:13:00,62.5,61.6,30.00,South,188,0.0,0.0,97,0.00,CLR,,0.00,WeatherDisplay:10.37,2013-08-01 06:13:00,
2013-08-01 02:18:00,62.6,61.7,30.00,South,188,0.0,0.0,97,0.00,CLR,,0.00,WeatherDisplay:10.37,2013-08-01 06:18:00,
2013-08-01 02:23:00,62.6,61.7,30.00,South,188,0.0,0.0,97,0.00,CLR,,0.00,WeatherDisplay:10.37,2013-08-01 06:23:00,
2013-08-01 02:28:00,62.6,61.7,30.00,South,188,0.0,0.0,97,0.00,CLR,,0.00,WeatherDisplay:10.37,2013-08-01 06:28:00,
2013-08-01 02:33:00,62.5,61.6,30.00,South,188,0.0,0.0,97,0.00,CLR,,0.00,WeatherDisplay:10.37,2013-08-01 06:33:00,
2013-08-01 02:38:00,62.5,61.6,30.00,South,188,0.0,0.0,97,0.00,CLR,,0.00,WeatherDisplay:10.37,2013-08-01 06:38:00,
2013-08-01 02:43:00,62.5,61.6,29.99,South,188,0.0,0.0,97,0.00,CLR,,0.00,WeatherDisplay:10.37,2013-08-01 06:43:00,
2013-08-01 02:48:00,62.5,61.6,29.99,South,188,0.0,0.0,97,0.00,CLR,,0.00,WeatherDisplay:10.37,2013-08-01 06:48:00,
2013-08-01 02:53:00,62.5,61.6,29.99,South,188,0.0,0.0,97,0.00,CLR,,0.00,WeatherDisplay:10.37,2013-08-01 06:53:00,
2013-08-01 02:58:00,62.5,61.6,29.99,South,188,0.0,0.0,97,0.00,CLR,,0.00,WeatherDisplay:10.37,2013-08-01 06:58:00,
2013-08-01 03:03:00,62.5,61.6,29.99,South,188,0.0,0.0,97,0.00,CLR,,0.00,WeatherDisplay:10.37,2013-08-01 07:03:00,
2013-08-01 03:08:00,62.5,61.6,29.99,South,188,0.0,0.0,97,0.00,CLR,,0.00,WeatherDisplay:10.37,2013-08-01 07:08:00,
2013-08-01 03:13:00,62.5,61.9,29.98,South,188,0.0,0.0,98,0.00,CLR,,0.00,WeatherDisplay:10.37,2013-08-01 07:13:00,
2013-08-01 03:18:00,62.5,61.9,29.98,South,188,0.0,0.0,98,0.00,CLR,,0.00,WeatherDisplay:10.37,2013-08-01 07:18:00,
2013-08-01 03:23:00,62.5,61.9,29.98,South,188,0.0,0.0,98,0.00,CLR,,0.00,WeatherDisplay:10.37,2013-08-01 07:23:00,
2013-08-01 03:28:00,62.5,61.9,29.98,South,188,0.0,0.0,98,0.00,CLR,,0.00,WeatherDisplay:10.37,2013-08-01 07:28:00,
2013-08-01 03:33:00,62.5,61.9,29.98,South,188,0.0,0.0,98,0.00,CLR,,0.00,WeatherDisplay:10.37,2013-08-01 07:33:00,
2013-08-01 03:38:00,62.5,61.9,29.97,South,188,0.0,0.0,98,0.00,CLR,,0.00,WeatherDisplay:10.37,2013-08-01 07:38:00,
2013-08-01 03:43:00,62.5,61.9,29.97,South,188,0.0,0.0,98,0.00,CLR,,0.00,WeatherDisplay:10.37,2013-08-01 07:43:00,
2013-08-01 03:48:00,62.6,62.0,29.97,South,188,0.0,0.0,98,0.00,CLR,,0.00,WeatherDisplay:10.37,2013-08-01 07:48:00,
2013-08-01 03:53:00,62.6,62.0,29.97,South,188,0.0,0.0,98,0.00,CLR,,0.00,WeatherDisplay:10.37,2013-08-01 07:53:00,
2013-08-01 03:58:00,62.6,62.0,29.97,South,188,0.0,0.0,98,0.00,CLR,,0.00,WeatherDisplay:10.37,2013-08-01 07:58:00,
2013-08-01 04:03:00,62.7,62.1,29.97,South,188,0.0,0.0,98,0.00,SCT,,0.00,WeatherDisplay:10.37,2013-08-01 08:03:00,
2013-08-01 04:08:00,62.7,62.1,29.96,South,188,0.0,0.0,98,0.00,SCT,,0.00,WeatherDisplay:10.37,2013-08-01 08:08:00,
2013-08-01 04:14:00,62.8,62.2,29.97,South,188,0.0,0.0,98,0.00,SCT,,0.00,WeatherDisplay:10.37,2013-08-01 08:14:00,
2013-08-01 04:19:00,62.9,62.3,29.97,South,188,0.0,0.0,98,0.00,SCT,,0.00,WeatherDisplay:10.37,2013-08-01 08:19:00,
2013-08-01 04:24:00,62.9,62.3,29.96,South,188,0.0,0.0,98,0.00,SCT,,0.00,WeatherDisplay:10.37,2013-08-01 08:24:00,
2013-08-01 04:29:00,62.9,62.3,29.96,South,188,0.0,0.0,98,0.00,SCT,,0.00,WeatherDisplay:10.37,2013-08-01 08:29:00,
2013-08-01 04:34:00,63.0,62.4,29.96,South,188,0.0,0.0,98,0.00,SCT,,0.00,WeatherDisplay:10.37,2013-08-01 08:34:00,
2013-08-01 04:40:00,63.0,62.4,29.96,South,188,0.0,0.0,98,0.00,SCT,,0.00,WeatherDisplay:10.37,2013-08-01 08:40:00,
2013-08-01 04:45:00,63.0,62.4,29.96,South,188,0.0,0.0,98,0.00,SCT,,0.00,WeatherDisplay:10.37,2013-08-01 08:45:00,
2013-08-01 04:50:00,63.0,62.4,29.96,South,188,0.0,0.0,98,0.00,SCT,,0.00,WeatherDisplay:10.37,2013-08-01 08:50:00,
2013-08-01 04:55:00,63.1,62.5,29.96,South,188,0.0,0.0,98,0.00,SCT,,0.00,WeatherDisplay:10.37,2013-08-01 08:55:00,
2013-08-01 05:00:00,63.1,62.5,29.96,South,188,0.0,0.0,98,0.00,SCT,,0.00,WeatherDisplay:10.37,2013-08-01 09:00:00,
2013-08-01 05:05:00,63.1,62.5,29.96,South,188,0.0,0.0,98,0.00,CLR,,0.00,WeatherDisplay:10.37,2013-08-01 09:05:00,
2013-08-01 05:12:00,63.3,63.0,29.96,South,188,0.0,0.0,99,0.00,CLR,,0.00,WeatherDisplay:10.37,2013-08-01 09:12:00,
2013-08-01 05:17:00,63.5,63.2,29.96,South,188,0.0,0.0,99,0.00,CLR,,0.00,WeatherDisplay:10.37,2013-08-01 09:17:00,
2013-08-01 05:23:00,63.6,63.3,29.96,South,188,0.0,0.0,99,0.00,CLR,,0.00,WeatherDisplay:10.37,2013-08-01 09:23:00,
2013-08-01 05:28:00,63.7,63.4,29.96,South,188,0.0,0.0,99,0.00,CLR,,0.00,WeatherDisplay:10.37,2013-08-01 09:28:00,
2013-08-01 05:34:00,63.7,63.4,29.96,South,188,0.0,0.0,99,0.00,CLR,,0.00,WeatherDisplay:10.37,2013-08-01 09:34:00,
2013-08-01 05:39:00,63.9,63.6,29.96,South,188,0.0,0.0,99,0.00,CLR,,0.00,WeatherDisplay:10.37,2013-08-01 09:39:00,
2013-08-01 05:46:00,64.0,63.7,29.96,South,188,0.0,0.0,99,0.00,CLR,,0.00,WeatherDisplay:10.37,2013-08-01 09:46:00,
2013-08-01 05:53:00,64.1,63.8,29.96,South,188,0.0,0.0,99,0.00,CLR,,0.00,WeatherDisplay:10.37,2013-08-01 09:53:00,
2013-08-01 05:59:00,64.2,63.9,29.96,South,188,0.0,0.0,99,0.00,CLR,,0.00,WeatherDisplay:10.37,2013-08-01 09:59:00,
2013-08-01 06:05:00,64.3,64.0,29.96,South,188,0.0,0.0,99,0.00,FEW,,0.00,WeatherDisplay:10.37,2013-08-01 10:05:00,
2013-08-01 06:12:00,64.4,64.1,29.96,South,188,0.0,0.0,99,0.00,FEW,,0.00,WeatherDisplay:10.37,2013-08-01 10:12:00,
2013-08-01 06:17:00,64.6,64.3,29.96,South,188,0.0,0.0,99,0.00,FEW,,0.00,WeatherDisplay:10.37,2013-08-01 10:17:00,
2013-08-01 06:22:00,64.7,64.4,29.96,South,188,0.0,0.0,99,0.00,FEW,,0.00,WeatherDisplay:10.37,2013-08-01 10:22:00,
2013-08-01 06:27:00,64.8,64.5,29.96,South,188,0.0,0.0,99,0.00,FEW,,0.00,WeatherDisplay:10.37,2013-08-01 10:27:00,
2013-08-01 06:33:00,64.9,64.6,29.96,South,188,0.0,0.0,99,0.00,FEW,,0.00,WeatherDisplay:10.37,2013-08-01 10:33:00,
2013-08-01 06:38:00,65.0,64.7,29.96,South,188,0.0,0.0,99,0.00,FEW,,0.00,WeatherDisplay:10.37,2013-08-01 10:38:00,
2013-08-01 06:44:00,65.3,65.0,29.96,South,188,0.0,0.0,99,0.00,FEW,,0.00,WeatherDisplay:10.37,2013-08-01 10:44:00,
2013-08-01 06:50:00,65.5,65.2,29.95,South,188,0.0,0.0,99,0.00,FEW,,0.00,WeatherDisplay:10.37,2013-08-01 10:50:00,
2013-08-01 06:55:00,65.7,65.1,29.95,South,188,0.0,0.0,98,0.00,FEW,,0.00,WeatherDisplay:10.37,2013-08-01 10:55:00,
2013-08-01 07:00:00,65.8,65.2,29.96,South,188,0.0,0.0,98,0.00,FEW,,0.00,WeatherDisplay:10.37,2013-08-01 11:00:00,
2013-08-01 07:05:00,66.0,65.7,29.95,South,188,0.0,0.0,99,0.00,OVC,,0.00,WeatherDisplay:10.37,2013-08-01 11:05:00,
2013-08-01 07:10:00,66.3,65.7,29.95,South,188,0.0,0.0,98,0.00,OVC,,0.00,WeatherDisplay:10.37,2013-08-01 11:10:00,
2013-08-01 07:15:00,66.6,66.0,29.95,South,188,0.0,0.0,98,0.00,OVC,,0.00,WeatherDisplay:10.37,2013-08-01 11:15:00,
2013-08-01 07:22:00,67.2,66.6,29.95,South,188,0.0,0.0,98,0.00,OVC,,0.00,WeatherDisplay:10.37,2013-08-01 11:22:00,
2013-08-01 07:27:00,67.8,67.2,29.95,South,188,0.0,0.0,98,0.00,OVC,,0.00,WeatherDisplay:10.37,2013-08-01 11:27:00,
2013-08-01 07:32:00,68.4,67.8,29.95,South,188,0.0,0.0,98,0.00,OVC,,0.00,WeatherDisplay:10.37,2013-08-01 11:32:00,
2013-08-01 07:38:00,68.9,68.0,29.95,South,188,0.0,0.0,97,0.00,OVC,,0.00,WeatherDisplay:10.37,2013-08-01 11:38:00,
2013-08-01 07:43:00,69.3,68.1,29.96,South,188,3.5,3.5,96,0.00,OVC,,0.00,WeatherDisplay:10.37,2013-08-01 11:43:00,
2013-08-01 07:48:00,69.7,68.2,29.95,South,185,3.5,3.5,95,0.00,OVC,,0.00,WeatherDisplay:10.37,2013-08-01 11:48:00,
2013-08-01 07:53:00,70.1,68.3,29.95,SSW,203,3.5,3.5,94,0.00,OVC,,0.00,WeatherDisplay:10.37,2013-08-01 11:53:00,
2013-08-01 07:58:00,70.5,68.1,29.95,South,186,3.5,3.5,92,0.00,OVC,,0.00,WeatherDisplay:10.37,2013-08-01 11:58:00,
2013-08-01 08:03:00,70.7,67.9,29.95,South,190,2.3,2.3,91,0.00,OVC,,0.00,WeatherDisplay:10.37,2013-08-01 12:03:00,
2013-08-01 08:12:00,70.9,67.8,29.95,SSE,168,5.0,5.0,90,0.00,OVC,,0.00,WeatherDisplay:10.37,2013-08-01 12:12:00,
2013-08-01 08:17:00,71.0,67.9,29.95,SSE,168,2.3,2.3,90,0.00,OVC,,0.00,WeatherDisplay:10.37,2013-08-01 12:17:00,
2013-08-01 08:22:00,71.2,68.4,29.95,SSE,168,0.0,0.0,91,0.00,OVC,,0.00,WeatherDisplay:10.37,2013-08-01 12:22:00,
2013-08-01 08:27:00,71.7,68.9,29.95,SSE,168,1.2,1.2,91,0.00,OVC,,0.00,WeatherDisplay:10.37,2013-08-01 12:27:00,
2013-08-01 08:32:00,72.4,69.0,29.95,SSW,194,4.6,4.6,89,0.00,OVC,,0.00,WeatherDisplay:10.37,2013-08-01 12:32:00,
2013-08-01 08:37:00,73.2,69.4,29.95,SW,214,3.5,3.5,88,0.00,OVC,,0.00,WeatherDisplay:10.37,2013-08-01 12:37:00,
2013-08-01 08:43:00,74.1,69.6,29.95,East,90,5.8,5.8,86,0.00,OVC,,0.00,WeatherDisplay:10.37,2013-08-01 12:43:00,
2013-08-01 08:48:00,74.3,68.8,29.94,East,93,5.8,5.8,83,0.00,OVC,,0.00,WeatherDisplay:10.37,2013-08-01 12:48:00,
2013-08-01 08:54:00,74.4,68.9,29.94,East,90,3.5,3.5,83,0.00,OVC,,0.00,WeatherDisplay:10.37,2013-08-01 12:54:00,
2013-08-01 09:00:00,74.4,68.5,29.94,East,92,8.1,8.1,82,0.00,OVC,,0.00,WeatherDisplay:10.37,2013-08-01 13:00:00,
2013-08-01 09:05:00,74.3,68.8,29.94,SW,234,4.0,4.0,83,0.00,SCT,,0.00,WeatherDisplay:10.37,2013-08-01 13:05:00,
2013-08-01 09:11:00,74.4,68.9,29.94,South,170,1.2,0.0,83,0.00,SCT,,0.00,WeatherDisplay:10.37,2013-08-01 13:11:00,
2013-08-01 09:17:00,75.0,68.8,29.93,SW,223,8.1,8.1,81,0.00,SCT,,0.00,WeatherDisplay:10.37,2013-08-01 13:17:00,
2013-08-01 09:23:00,75.1,68.5,29.93,SSE,168,5.8,5.8,80,0.00,SCT,,0.00,WeatherDisplay:10.37,2013-08-01 13:23:00,
2013-08-01 09:29:00,75.3,68.7,29.93,SSE,148,4.6,4.6,80,0.00,SCT,,0.00,WeatherDisplay:10.37,2013-08-01 13:29:00,
2013-08-01 09:34:00,75.3,68.0,29.93,SSE,149,5.0,5.0,78,0.00,SCT,,0.00,WeatherDisplay:10.37,2013-08-01 13:34:00,
2013-08-01 09:40:00,75.2,67.5,29.93,SSW,198,8.1,8.1,77,0.00,SCT,,0.00,WeatherDisplay:10.37,2013-08-01 13:40:00,
2013-08-01 09:45:00,74.9,67.6,29.93,SSW,202,6.0,6.0,78,0.00,SCT,,0.00,WeatherDisplay:10.37,2013-08-01 13:45:00,
2013-08-01 09:51:00,74.8,67.8,29.93,West,264,5.8,5.8,79,0.00,SCT,,0.00,WeatherDisplay:10.37,2013-08-01 13:51:00,
2013-08-01 09:56:00,74.6,67.7,29.93,SW,221,6.9,6.9,79,0.00,SCT,,0.00,WeatherDisplay:10.37,2013-08-01 13:56:00,
2013-08-01 10:01:00,74.4,67.1,29.93,SW,219,3.5,3.5,78,0.00,SCT,,0.00,WeatherDisplay:10.37,2013-08-01 14:01:00,
2013-08-01 10:07:00,74.3,67.4,29.93,SSW,192,3.5,3.5,79,0.00,BKN,,0.00,WeatherDisplay:10.37,2013-08-01 14:07:00,
2013-08-01 10:13:00,74.3,68.1,29.93,South,171,4.6,4.6,81,0.00,BKN,,0.00,WeatherDisplay:10.37,2013-08-01 14:13:00,
2013-08-01 10:19:00,74.2,68.7,29.93,SSW,195,3.5,3.5,83,0.00,BKN,,0.00,WeatherDisplay:10.37,2013-08-01 14:19:00,
2013-08-01 10:24:00,74.1,69.0,29.93,SSW,213,4.6,4.6,84,0.00,BKN,,0.00,WeatherDisplay:10.37,2013-08-01 14:24:00,
2013-08-01 10:30:00,73.9,68.4,29.92,SW,216,10.4,10.4,83,0.00,BKN,,0.00,WeatherDisplay:10.37,2013-08-01 14:30:00,
2013-08-01 10:35:00,73.8,68.7,29.93,South,179,8.0,8.0,84,0.00,BKN,,0.00,WeatherDisplay:10.37,2013-08-01 14:35:00,
2013-08-01 10:42:00,73.6,68.5,29.92,SSW,200,4.6,4.6,84,0.00,BKN,,0.00,WeatherDisplay:10.37,2013-08-01 14:42:00,
2013-08-01 10:48:00,73.6,68.8,29.93,SE,128,5.8,5.8,85,0.00,BKN,,0.00,WeatherDisplay:10.37,2013-08-01 14:48:00,
2013-08-01 10:54:00,73.4,69.0,29.92,WSW,247,5.8,5.8,86,0.00,BKN,,0.00,WeatherDisplay:10.37,2013-08-01 14:54:00,
2013-08-01 10:59:00,73.2,68.8,29.92,South,178,4.0,4.0,86,0.00,BKN,,0.00,WeatherDisplay:10.37,2013-08-01 14:59:00,
2013-08-01 11:04:00,72.9,67.8,29.93,SSE,162,11.5,11.5,84,0.00,OVC,,0.00,WeatherDisplay:10.37,2013-08-01 15:04:00,
2013-08-01 11:09:00,72.7,66.9,29.93,SSW,202,11.5,11.5,82,0.00,OVC,,0.00,WeatherDisplay:10.37,2013-08-01 15:09:00,
2013-08-01 11:15:00,72.6,67.5,29.93,South,176,5.8,5.8,84,0.00,OVC,,0.00,WeatherDisplay:10.37,2013-08-01 15:15:00,
2013-08-01 11:20:00,72.4,67.6,29.93,SSE,166,5.8,5.8,85,0.00,OVC,,0.00,WeatherDisplay:10.37,2013-08-01 15:20:00,
2013-08-01 11:25:00,72.3,67.5,29.93,SSE,168,4.6,4.6,85,0.00,OVC,,0.00,WeatherDisplay:10.37,2013-08-01 15:25:00,
2013-08-01 11:34:00,71.9,67.8,29.92,SSW,204,0.0,0.0,87,0.00,OVC,,0.01,WeatherDisplay:10.37,2013-08-01 15:34:00,
2013-08-01 11:39:00,71.6,67.9,29.93,SSW,206,2.3,2.3,88,0.03,RA,,0.04,WeatherDisplay:10.37,2013-08-01 15:39:00,
2013-08-01 11:44:00,70.6,67.2,29.93,SSW,203,8.1,8.1,89,0.05,RA,,0.06,WeatherDisplay:10.37,2013-08-01 15:44:00,
2013-08-01 11:49:00,69.8,67.1,29.93,SSW,211,3.5,3.5,91,0.06,RA,,0.06,WeatherDisplay:10.37,2013-08-01 15:49:00,
2013-08-01 11:54:00,69.4,67.3,29.93,SW,215,2.3,2.3,93,0.07,RA,,0.07,WeatherDisplay:10.37,2013-08-01 15:54:00,
2013-08-01 11:59:00,69.1,67.3,29.93,SSW,208,0.0,0.0,94,0.08,RA,,0.09,WeatherDisplay:10.37,2013-08-01 15:59:00,
2013-08-01 12:04:00,69.0,67.5,29.93,SSW,208,3.5,3.5,95,0.12,-RA,,0.12,WeatherDisplay:10.37,2013-08-01 16:04:00,
2013-08-01 12:10:00,68.8,67.6,29.93,South,186,3.5,3.5,96,0.14,-RA,,0.14,WeatherDisplay:10.37,2013-08-01 16:10:00,
2013-08-01 12:15:00,68.8,67.9,29.92,South,171,4.0,4.0,97,0.14,-RA,,0.14,WeatherDisplay:10.37,2013-08-01 16:15:00,
2013-08-01 12:20:00,68.9,68.0,29.92,South,180,4.6,4.6,97,0.14,-RA,,0.14,WeatherDisplay:10.37,2013-08-01 16:20:00,
2013-08-01 12:26:00,68.5,67.0,29.92,South,186,6.9,6.9,95,0.14,-RA,,0.14,WeatherDisplay:10.37,2013-08-01 16:26:00,
2013-08-01 12:32:00,68.1,66.3,29.92,SSW,193,5.8,5.8,94,0.14,-RA,,0.14,WeatherDisplay:10.37,2013-08-01 16:32:00,
2013-08-01 12:37:00,67.9,66.1,29.93,South,178,4.6,4.6,94,0.13,-RA,,0.16,WeatherDisplay:10.37,2013-08-01 16:37:00,
2013-08-01 12:43:00,67.7,65.9,29.92,South,173,3.5,3.5,94,0.12,-RA,,0.19,WeatherDisplay:10.37,2013-08-01 16:43:00,
2013-08-01 12:48:00,67.6,66.1,29.92,South,173,1.2,0.0,95,0.12,-RA,,0.19,WeatherDisplay:10.37,2013-08-01 16:48:00,
2013-08-01 12:53:00,67.7,66.5,29.92,SSW,195,3.5,3.5,96,0.11,-RA,,0.19,WeatherDisplay:10.37,2013-08-01 16:53:00,
2013-08-01 12:59:00,67.8,66.6,29.91,SSW,195,0.0,0.0,96,0.10,-RA,,0.19,WeatherDisplay:10.37,2013-08-01 16:59:00,
2013-08-01 13:04:00,67.8,66.6,29.91,SSW,195,0.0,0.0,96,0.07,-RA,,0.20,WeatherDisplay:10.37,2013-08-01 17:04:00,
2013-08-01 13:15:00,67.7,66.5,29.91,SSW,196,0.0,0.0,96,0.05,-RA,,0.20,WeatherDisplay:10.37,2013-08-01 17:15:00,
2013-08-01 13:20:00,67.5,66.3,29.92,SSE,165,2.3,2.3,96,0.05,-RA,,0.20,WeatherDisplay:10.37,2013-08-01 17:20:00,
2013-08-01 13:25:00,67.4,66.2,29.92,SSE,165,1.2,0.0,96,0.05,-RA,,0.20,WeatherDisplay:10.37,2013-08-01 17:25:00,
2013-08-01 13:30:00,67.3,66.1,29.91,SSW,199,4.6,4.6,96,0.06,-RA,,0.21,WeatherDisplay:10.37,2013-08-01 17:30:00,
2013-08-01 13:38:00,67.2,66.3,29.92,SSW,197,1.2,1.2,97,0.05,-RA,,0.22,WeatherDisplay:10.37,2013-08-01 17:38:00,
2013-08-01 13:44:00,67.2,66.3,29.92,SSW,197,1.2,1.2,97,0.03,-RA,,0.22,WeatherDisplay:10.37,2013-08-01 17:44:00,
2013-08-01 13:49:00,67.1,66.2,29.92,SSE,165,2.3,2.8,97,0.03,-RA,,0.22,WeatherDisplay:10.37,2013-08-01 17:49:00,
2013-08-01 13:54:00,67.1,66.5,29.92,SSE,163,3.5,3.5,98,0.03,-RA,,0.22,WeatherDisplay:10.37,2013-08-01 17:54:00,
2013-08-01 14:00:00,67.1,66.5,29.92,South,184,3.5,3.5,98,0.03,-RA,,0.22,WeatherDisplay:10.37,2013-08-01 18:00:00,
2013-08-01 14:05:00,67.1,66.5,29.91,South,171,2.3,2.3,98,0.03,-RA,,0.23,WeatherDisplay:10.37,2013-08-01 18:05:00,
2013-08-01 14:10:00,67.0,66.4,29.91,SSW,203,3.5,3.5,98,0.04,-RA,,0.24,WeatherDisplay:10.37,2013-08-01 18:10:00,
2013-08-01 14:16:00,67.2,66.6,29.91,South,180,3.5,3.5,98,0.04,-RA,,0.24,WeatherDisplay:10.37,2013-08-01 18:16:00,
2013-08-01 14:22:00,67.1,66.5,29.91,South,179,6.9,6.9,98,0.04,-RA,,0.24,WeatherDisplay:10.37,2013-08-01 18:22:00,
2013-08-01 14:27:00,67.1,66.5,29.91,SSE,165,3.5,3.5,98,0.05,-RA,,0.25,WeatherDisplay:10.37,2013-08-01 18:27:00,
2013-08-01 14:33:00,67.2,66.6,29.90,SSE,165,4.6,4.6,98,0.04,-RA,,0.25,WeatherDisplay:10.37,2013-08-01 18:33:00,
2013-08-01 14:39:00,67.2,66.6,29.91,SE,144,5.8,5.8,98,0.03,-RA,,0.25,WeatherDisplay:10.37,2013-08-01 18:39:00,
2013-08-01 14:44:00,67.2,66.6,29.90,SSE,165,5.8,5.8,98,0.04,-RA,,0.26,WeatherDisplay:10.37,2013-08-01 18:44:00,
2013-08-01 14:50:00,67.2,66.6,29.91,WSW,248,2.3,0.0,98,0.04,-RA,,0.26,WeatherDisplay:10.37,2013-08-01 18:50:00,
2013-08-01 14:55:00,67.2,66.6,29.91,SSW,205,3.5,3.5,98,0.04,-RA,,0.26,WeatherDisplay:10.37,2013-08-01 18:55:00,
2013-08-01 15:01:00,67.1,66.2,29.90,SW,217,5.8,5.8,97,0.04,-RA,,0.26,WeatherDisplay:10.37,2013-08-01 19:01:00,
2013-08-01 15:06:00,67.1,66.2,29.90,SSW,192,0.0,0.0,97,0.04,-RA,,0.27,WeatherDisplay:10.37,2013-08-01 19:06:00,
2013-08-01 15:18:00,67.4,66.8,29.90,East,86,0.0,0.0,98,0.03,-RA,,0.27,WeatherDisplay:10.37,2013-08-01 19:18:00,
2013-08-01 15:24:00,67.4,66.5,29.90,SW,219,4.6,4.6,97,0.03,-RA,,0.27,WeatherDisplay:10.37,2013-08-01 19:24:00,
2013-08-01 15:29:00,67.4,66.5,29.90,South,172,5.8,5.8,97,0.02,-RA,,0.27,WeatherDisplay:10.37,2013-08-01 19:29:00,
2013-08-01 15:34:00,67.3,66.4,29.90,SSE,163,5.8,5.8,97,0.03,-RA,,0.28,WeatherDisplay:10.37,2013-08-01 19:34:00,
2013-08-01 15:39:00,67.3,66.7,29.90,South,177,3.5,3.5,98,0.02,-RA,,0.28,WeatherDisplay:10.37,2013-08-01 19:39:00,
2013-08-01 15:44:00,67.4,66.8,29.90,SSW,200,2.3,2.3,98,0.02,-RA,,0.28,WeatherDisplay:10.37,2013-08-01 19:44:00,
2013-08-01 15:50:00,67.4,66.8,29.89,SSE,158,5.8,5.8,98,0.02,-RA,,0.28,WeatherDisplay:10.37,2013-08-01 19:50:00,
2013-08-01 15:55:00,67.3,66.7,29.89,SSE,167,4.0,4.0,98,0.02,-RA,,0.28,WeatherDisplay:10.37,2013-08-01 19:55:00,
2013-08-01 16:01:00,67.3,66.7,29.89,South,174,3.5,3.5,98,0.02,OVC,,0.28,WeatherDisplay:10.37,2013-08-01 20:01:00,
2013-08-01 16:07:00,67.3,66.7,29.89,SSE,163,3.5,3.5,98,0.01,OVC,,0.28,WeatherDisplay:10.37,2013-08-01 20:07:00,
2013-08-01 16:12:00,67.3,66.7,29.89,South,175,5.8,5.8,98,0.01,OVC,,0.28,WeatherDisplay:10.37,2013-08-01 20:12:00,
2013-08-01 16:19:00,67.2,66.6,29.88,South,178,4.6,4.6,98,0.01,OVC,,0.28,WeatherDisplay:10.37,2013-08-01 20:19:00,
2013-08-01 16:24:00,67.3,66.7,29.88,South,173,4.6,4.6,98,0.01,OVC,,0.28,WeatherDisplay:10.37,2013-08-01 20:24:00,
2013-08-01 16:30:00,67.2,66.3,29.88,South,186,4.6,4.6,97,0.01,OVC,,0.28,WeatherDisplay:10.37,2013-08-01 20:30:00,
2013-08-01 16:36:00,67.1,66.2,29.88,South,182,5.8,5.8,97,0.00,OVC,,0.28,WeatherDisplay:10.37,2013-08-01 20:36:00,
2013-08-01 16:41:00,67.0,66.1,29.88,South,171,4.6,4.6,97,0.00,OVC,,0.28,WeatherDisplay:10.37,2013-08-01 20:41:00,
2013-08-01 16:47:00,67.0,66.1,29.87,South,171,1.2,1.2,97,0.00,OVC,,0.28,WeatherDisplay:10.37,2013-08-01 20:47:00,
2013-08-01 16:52:00,67.0,66.1,29.87,SSW,207,0.0,0.0,97,0.00,OVC,,0.28,WeatherDisplay:10.37,2013-08-01 20:52:00,
2013-08-01 16:57:00,66.9,66.0,29.87,SSW,200,1.0,1.0,97,0.00,OVC,,0.28,WeatherDisplay:10.37,2013-08-01 20:57:00,
2013-08-01 17:03:00,67.0,66.4,29.87,SSW,200,0.0,0.0,98,0.00,OVC,,0.28,WeatherDisplay:10.37,2013-08-01 21:03:00,
2013-08-01 17:08:00,67.1,66.5,29.87,SSW,200,1.2,1.2,98,0.00,OVC,,0.28,WeatherDisplay:10.37,2013-08-01 21:08:00,
2013-08-01 17:13:00,67.1,66.5,29.86,SW,225,2.3,2.3,98,0.00,OVC,,0.28,WeatherDisplay:10.37,2013-08-01 21:13:00,
2013-08-01 17:18:00,67.0,66.4,29.86,ENE,71,3.5,3.5,98,0.00,OVC,,0.28,WeatherDisplay:10.37,2013-08-01 21:18:00,
2013-08-01 17:24:00,67.0,66.4,29.86,East,101,1.2,0.0,98,0.00,OVC,,0.28,WeatherDisplay:10.37,2013-08-01 21:24:00,
2013-08-01 17:30:00,67.0,66.4,29.86,ESE,116,3.5,3.5,98,0.00,OVC,,0.28,WeatherDisplay:10.37,2013-08-01 21:30:00,
2013-08-01 17:35:00,66.9,66.3,29.86,SW,234,3.5,3.5,98,0.00,OVC,,0.28,WeatherDisplay:10.37,2013-08-01 21:35:00,
2013-08-01 17:40:00,67.0,66.4,29.86,SW,234,1.2,0.0,98,0.00,OVC,,0.28,WeatherDisplay:10.37,2013-08-01 21:40:00,
2013-08-01 17:45:00,66.9,66.3,29.86,SE,128,3.5,3.5,98,0.00,OVC,,0.28,WeatherDisplay:10.37,2013-08-01 21:45:00,
2013-08-01 17:50:00,66.9,66.3,29.86,NNE,32,3.5,3.5,98,0.00,OVC,,0.28,WeatherDisplay:10.37,2013-08-01 21:50:00,
2013-08-01 17:55:00,66.8,66.2,29.85,SW,218,2.3,2.3,98,0.00,OVC,,0.28,WeatherDisplay:10.37,2013-08-01 21:55:00,
2013-08-01 18:01:00,66.8,66.2,29.86,SSE,165,3.5,3.5,98,0.00,OVC,,0.28,WeatherDisplay:10.37,2013-08-01 22:01:00,
2013-08-01 18:06:00,66.7,66.1,29.86,ENE,78,3.5,3.5,98,0.00,OVC,,0.28,WeatherDisplay:10.37,2013-08-01 22:06:00,
2013-08-01 18:11:00,66.7,66.1,29.86,South,174,2.0,2.0,98,0.00,OVC,,0.28,WeatherDisplay:10.37,2013-08-01 22:11:00,
2013-08-01 18:17:00,66.6,66.0,29.85,South,173,2.3,2.3,98,0.00,OVC,,0.28,WeatherDisplay:10.37,2013-08-01 22:17:00,
2013-08-01 18:22:00,66.6,66.0,29.86,South,174,0.0,0.0,98,0.00,OVC,,0.28,WeatherDisplay:10.37,2013-08-01 22:22:00,
2013-08-01 18:23:00,66.6,66.0,29.86,South,174,3.5,3.5,98,0.00,OVC,,0.28,WeatherDisplay:10.37,2013-08-01 22:23:00,
2013-08-01 18:28:00,66.5,65.9,29.86,South,174,1.0,0.0,98,0.12,RA,,0.40,WeatherDisplay:10.37,2013-08-01 22:28:00,
2013-08-01 18:33:00,66.5,65.9,29.86,South,174,0.0,0.0,98,0.13,RA,,0.41,WeatherDisplay:10.37,2013-08-01 22:33:00,
2013-08-01 18:38:00,66.5,65.9,29.86,SE,140,0.0,0.0,98,0.13,RA,,0.41,WeatherDisplay:10.37,2013-08-01 22:38:00,
2013-08-01 18:43:00,66.6,66.0,29.85,South,180,0.0,0.0,98,0.13,OVC,,0.41,WeatherDisplay:10.37,2013-08-01 22:43:00,
2013-08-01 18:48:00,66.6,66.3,29.85,South,180,1.2,1.2,99,0.13,OVC,,0.41,WeatherDisplay:10.37,2013-08-01 22:48:00,
2013-08-01 18:53:00,66.7,66.4,29.85,South,180,0.0,0.0,99,0.14,RA,,0.42,WeatherDisplay:10.37,2013-08-01 22:53:00,
2013-08-01 18:59:00,66.7,66.4,29.85,South,180,2.0,2.0,99,0.14,RA,,0.42,WeatherDisplay:10.37,2013-08-01 22:59:00,
2013-08-01 19:04:00,66.8,66.5,29.86,SSW,192,3.5,3.5,99,0.14,-RA,,0.42,WeatherDisplay:10.37,2013-08-01 23:04:00,
2013-08-01 19:10:00,66.8,66.5,29.86,South,175,2.3,2.3,99,0.14,-RA,,0.42,WeatherDisplay:10.37,2013-08-01 23:10:00,
2013-08-01 19:15:00,66.8,66.5,29.86,South,175,2.3,2.3,99,0.14,-RA,,0.42,WeatherDisplay:10.37,2013-08-01 23:15:00,
2013-08-01 19:20:00,66.8,66.5,29.86,South,175,1.2,1.2,99,0.14,-RA,,0.42,WeatherDisplay:10.37,2013-08-01 23:20:00,
2013-08-01 19:25:00,66.9,66.6,29.86,South,175,0.0,0.0,99,0.03,-RA,,0.42,WeatherDisplay:10.37,2013-08-01 23:25:00,
2013-08-01 19:30:00,66.9,66.6,29.86,South,175,1.2,0.0,99,0.02,-RA,,0.42,WeatherDisplay:10.37,2013-08-01 23:30:00,
2013-08-01 19:35:00,66.9,66.6,29.86,South,175,0.0,0.0,99,0.01,-RA,,0.42,WeatherDisplay:10.37,2013-08-01 23:35:00,
2013-08-01 19:41:00,67.0,66.7,29.86,South,175,1.2,0.0,99,0.01,-RA,,0.42,WeatherDisplay:10.37,2013-08-01 23:41:00,
2013-08-01 19:46:00,67.0,66.7,29.86,NNE,17,1.2,0.0,99,0.01,-RA,,0.42,WeatherDisplay:10.37,2013-08-01 23:46:00,
2013-08-01 19:52:00,67.0,66.7,29.86,NNE,17,2.3,2.3,99,0.01,-RA,,0.42,WeatherDisplay:10.37,2013-08-01 23:52:00,
2013-08-01 19:57:00,67.0,66.7,29.86,NNE,17,2.3,0.0,99,0.01,-RA,,0.43,WeatherDisplay:10.37,2013-08-01 23:57:00,
2013-08-01 20:03:00,67.0,66.7,29.86,NNE,17,1.2,1.2,99,0.06,-RA,,0.49,WeatherDisplay:10.37,2013-08-02 00:03:00,
2013-08-01 20:08:00,67.0,66.7,29.86,NNE,17,0.0,0.0,99,0.20,-RA,,0.62,WeatherDisplay:10.37,2013-08-02 00:08:00,
2013-08-01 20:13:00,67.0,66.7,29.86,NNE,17,0.0,0.0,99,0.25,-RA,,0.67,WeatherDisplay:10.37,2013-08-02 00:13:00,
2013-08-01 20:18:00,67.0,67.0,29.86,NE,50,2.3,0.0,100,0.30,-RA,,0.72,WeatherDisplay:10.37,2013-08-02 00:18:00,
2013-08-01 20:23:00,67.0,67.0,29.86,SSE,157,3.5,3.5,100,0.31,-RA,,0.73,WeatherDisplay:10.37,2013-08-02 00:23:00,
2013-08-01 20:29:00,67.0,67.0,29.85,SSE,157,0.0,0.0,100,0.32,-RA,,0.74,WeatherDisplay:10.37,2013-08-02 00:29:00,
2013-08-01 20:34:00,67.0,67.0,29.85,SSE,157,0.0,0.0,100,0.33,-RA,,0.75,WeatherDisplay:10.37,2013-08-02 00:34:00,
2013-08-01 20:39:00,67.0,67.0,29.85,SSE,157,0.0,0.0,100,0.33,-RA,,0.75,WeatherDisplay:10.37,2013-08-02 00:39:00,
2013-08-01 20:44:00,67.1,67.1,29.85,SSE,157,0.0,0.0,100,0.33,-RA,,0.75,WeatherDisplay:10.37,2013-08-02 00:44:00,
2013-08-01 20:49:00,67.1,67.1,29.85,SSE,157,0.0,0.0,100,0.33,-RA,,0.75,WeatherDisplay:10.37,2013-08-02 00:49:00,
2013-08-01 20:54:00,67.2,67.2,29.85,SSE,157,0.0,0.0,100,0.33,-RA,,0.75,WeatherDisplay:10.37,2013-08-02 00:54:00,
2013-08-01 20:59:00,67.2,67.2,29.84,SSE,157,0.0,0.0,100,0.31,-RA,,0.75,WeatherDisplay:10.37,2013-08-02 00:59:00,
2013-08-01 21:06:00,67.3,67.3,29.84,SSE,157,0.0,0.0,100,0.19,CLR,,0.75,WeatherDisplay:10.37,2013-08-02 01:06:00,
2013-08-01 21:11:00,67.4,67.4,29.84,SSE,157,0.0,0.0,100,0.10,RA,,0.76,WeatherDisplay:10.37,2013-08-02 01:11:00,
2013-08-01 21:16:00,67.5,67.5,29.84,SSE,157,0.0,0.0,100,0.06,RA,,0.76,WeatherDisplay:10.37,2013-08-02 01:16:00,
2013-08-01 21:21:00,67.6,67.6,29.84,SSE,157,0.0,0.0,100,0.03,CLR,,0.76,WeatherDisplay:10.37,2013-08-02 01:21:00,
2013-08-01 21:27:00,67.7,67.7,29.84,ENE,68,1.2,1.2,100,0.03,CLR,,0.76,WeatherDisplay:10.37,2013-08-02 01:27:00,
2013-08-01 21:32:00,67.8,67.8,29.84,SE,129,2.3,0.0,100,0.01,CLR,,0.76,WeatherDisplay:10.37,2013-08-02 01:32:00,
2013-08-01 21:37:00,67.8,67.8,29.83,SE,132,1.0,1.0,100,0.01,CLR,,0.76,WeatherDisplay:10.37,2013-08-02 01:37:00,
2013-08-01 21:42:00,67.9,67.9,29.83,SSW,198,2.3,2.3,100,0.02,RA,,0.77,WeatherDisplay:10.37,2013-08-02 01:42:00,
2013-08-01 21:47:00,67.9,67.9,29.83,South,178,0.0,0.0,100,0.02,RA,,0.77,WeatherDisplay:10.37,2013-08-02 01:47:00,
2013-08-01 21:52:00,68.0,68.0,29.84,South,179,2.3,2.3,100,0.02,CLR,,0.77,WeatherDisplay:10.37,2013-08-02 01:52:00,
2013-08-01 21:57:00,68.0,68.0,29.83,South,170,4.6,4.6,100,0.02,CLR,,0.77,WeatherDisplay:10.37,2013-08-02 01:57:00,
2013-08-01 22:03:00,68.1,68.1,29.83,SSE,165,3.5,3.5,100,0.02,-RA,,0.77,WeatherDisplay:10.37,2013-08-02 02:03:00,
2013-08-01 22:08:00,68.1,68.1,29.83,SSE,165,3.5,3.5,100,0.01,-RA,,0.77,WeatherDisplay:10.37,2013-08-02 02:08:00,
2013-08-01 22:13:00,68.2,68.2,29.83,SSW,211,3.5,3.5,100,0.01,-RA,,0.77,WeatherDisplay:10.37,2013-08-02 02:13:00,
2013-08-01 22:18:00,68.3,68.3,29.83,SSE,166,1.2,1.2,100,0.01,-RA,,0.77,WeatherDisplay:10.37,2013-08-02 02:18:00,
2013-08-01 22:23:00,68.3,68.3,29.83,South,174,2.3,2.3,100,0.01,-RA,,0.77,WeatherDisplay:10.37,2013-08-02 02:23:00,
2013-08-01 22:28:00,68.4,68.4,29.83,South,174,0.0,0.0,100,0.01,-RA,,0.77,WeatherDisplay:10.37,2013-08-02 02:28:00,
2013-08-01 22:33:00,68.4,68.4,29.83,SW,220,3.5,3.5,100,0.01,-RA,,0.77,WeatherDisplay:10.37,2013-08-02 02:33:00,
2013-08-01 22:39:00,68.5,68.5,29.83,SW,221,0.0,0.0,100,0.01,-RA,,0.77,WeatherDisplay:10.37,2013-08-02 02:39:00,
2013-08-01 22:44:00,68.5,68.5,29.83,SW,220,2.3,2.3,100,0.00,-RA,,0.77,WeatherDisplay:10.37,2013-08-02 02:44:00,
2013-08-01 22:49:00,68.6,68.6,29.82,SW,220,0.0,0.0,100,0.00,-RA,,0.77,WeatherDisplay:10.37,2013-08-02 02:49:00,
2013-08-01 22:54:00,68.6,68.6,29.82,SW,220,0.0,0.0,100,0.00,-RA,,0.77,WeatherDisplay:10.37,2013-08-02 02:54:00,
2013-08-01 22:59:00,68.6,68.6,29.82,SW,220,0.0,0.0,100,0.00,-RA,,0.77,WeatherDisplay:10.37,2013-08-02 02:59:00,
2013-08-01 23:04:00,68.6,68.6,29.82,SW,220,0.0,0.0,100,0.00,CLR,,0.77,WeatherDisplay:10.37,2013-08-02 03:04:00,
2013-08-01 23:09:00,68.6,68.6,29.82,SW,220,0.0,0.0,100,0.00,CLR,,0.77,WeatherDisplay:10.37,2013-08-02 03:09:00,
2013-08-01 23:14:00,68.7,68.7,29.82,SW,220,0.0,0.0,100,0.00,CLR,,0.77,WeatherDisplay:10.37,2013-08-02 03:14:00,
2013-08-01 23:20:00,68.7,68.7,29.82,SW,220,0.0,0.0,100,0.00,CLR,,0.77,WeatherDisplay:10.37,2013-08-02 03:20:00,
2013-08-01 23:25:00,68.8,68.8,29.82,SW,220,0.0,0.0,100,0.00,CLR,,0.77,WeatherDisplay:10.37,2013-08-02 03:25:00,
2013-08-01 23:30:00,68.8,68.8,29.82,SW,220,0.0,0.1,100,0.00,CLR,,0.77,WeatherDisplay:10.37,2013-08-02 03:30:00,
2013-08-01 23:35:00,68.8,68.8,29.82,WSW,253,2.3,0.0,100,0.00,CLR,,0.77,WeatherDisplay:10.37,2013-08-02 03:35:00,
2013-08-01 23:40:00,68.8,68.8,29.82,WSW,250,0.0,0.0,100,0.00,CLR,,0.77,WeatherDisplay:10.37,2013-08-02 03:40:00,
2013-08-01 23:45:00,68.8,68.8,29.82,WSW,250,0.0,0.0,100,0.00,CLR,,0.77,WeatherDisplay:10.37,2013-08-02 03:45:00,
2013-08-01 23:52:00,68.8,68.8,29.82,West,259,5.8,5.8,100,0.00,CLR,,0.77,WeatherDisplay:10.37,2013-08-02 03:52:00,
2013-08-01 23:57:00,68.8,68.8,29.82,West,260,2.3,2.3,100,0.00,CLR,,0.77,WeatherDisplay:10.37,2013-08-02 03:57:00,